createdAt,value
2022-09-20T01:37:00.071Z,12.20
2022-09-20T01:39:58.763Z,11.40
2022-09-20T01:42:37.304Z,11.40
2022-09-20T01:45:26.119Z,11.40
2022-09-20T01:48:14.829Z,11.40
2022-09-20T01:50:50.496Z,11.40
2022-09-20T01:53:45.044Z,11.20
2022-09-20T01:56:42.978Z,11.30
2022-09-20T01:59:30.660Z,11.30
2022-09-20T02:02:17.071Z,11.30
2022-09-20T02:05:05.929Z,11.40
2022-09-20T02:08:01.846Z,11.40
2022-09-20T02:10:50.103Z,11.40
2022-09-20T02:13:16.854Z,11.40
2022-09-20T02:16:17.400Z,11.40
2022-09-20T02:19:12.001Z,11.30
2022-09-20T02:21:57.179Z,11.40
2022-09-20T02:24:44.570Z,11.40
2022-09-20T02:27:26.126Z,11.40
2022-09-20T02:30:05.010Z,11.50
2022-09-20T02:32:56.768Z,11.40
2022-09-20T02:35:38.458Z,11.50
2022-09-20T02:38:33.447Z,11.50
2022-09-20T02:41:37.408Z,11.40
2022-09-20T02:44:22.519Z,11.40
2022-09-20T02:47:07.342Z,11.50
2022-09-20T02:49:52.276Z,11.40
2022-09-20T02:52:35.882Z,11.50
2022-09-20T02:55:41.349Z,11.40
2022-09-20T02:58:27.853Z,11.50
2022-09-20T03:01:07.983Z,11.50
2022-09-20T03:04:12.416Z,11.50
2022-09-20T03:06:55.999Z,11.50
2022-09-20T03:10:11.108Z,11.50
2022-09-20T03:12:53.048Z,11.40
2022-09-20T03:15:44.769Z,11.40
2022-09-20T03:18:19.545Z,11.40
2022-09-20T03:21:11.695Z,11.40
2022-09-20T03:23:59.887Z,11.40
2022-09-20T03:26:45.609Z,11.40
2022-09-20T03:29:33.785Z,11.50
2022-09-20T03:32:13.536Z,11.40
2022-09-20T03:35:17.275Z,11.40
2022-09-20T03:37:43.974Z,11.50
2022-09-20T03:40:33.935Z,11.50
2022-09-20T03:43:16.448Z,11.50
2022-09-20T03:45:56.142Z,11.50
2022-09-20T03:49:07.319Z,11.50
2022-09-20T03:51:54.582Z,11.50
2022-09-20T03:54:21.333Z,11.50
2022-09-20T03:57:12.199Z,11.50
2022-09-20T03:59:55.331Z,11.50
2022-09-20T04:02:43.146Z,11.50
2022-09-20T04:05:12.380Z,11.50
2022-09-20T04:07:57.940Z,11.50
2022-09-20T04:10:53.533Z,11.60
2022-09-20T04:13:50.552Z,11.50
2022-09-20T04:16:41.361Z,11.50
2022-09-20T04:19:32.858Z,11.60
2022-09-20T04:22:01.484Z,11.60
2022-09-20T04:24:56.543Z,11.60
2022-09-20T04:27:40.595Z,11.60
2022-09-20T04:30:19.940Z,11.50
2022-09-20T04:33:11.883Z,11.50
2022-09-20T04:36:28.315Z,11.60
2022-09-20T04:39:37.031Z,11.60
2022-09-20T04:42:08.577Z,11.50
2022-09-20T04:44:55.189Z,11.60
2022-09-20T04:47:42.348Z,11.60
2022-09-20T04:50:30.539Z,11.60
2022-09-20T04:53:24.776Z,11.60
2022-09-20T04:55:59.030Z,11.50
2022-09-20T04:58:56.701Z,11.50
2022-09-20T05:02:03.577Z,11.50
2022-09-20T05:04:56.741Z,11.60
2022-09-20T05:08:04.338Z,11.60
2022-09-20T05:11:01.861Z,11.60
2022-09-20T05:13:47.421Z,11.60
2022-09-20T05:16:37.828Z,11.60
2022-09-20T05:19:13.613Z,11.60
2022-09-20T05:21:55.204Z,11.60
2022-09-20T05:24:40.232Z,11.70
2022-09-20T05:27:19.861Z,11.70
2022-09-20T05:30:04.859Z,11.70
2022-09-20T05:33:07.586Z,11.60
2022-09-20T05:36:18.338Z,11.60
2022-09-20T05:39:19.027Z,11.60
2022-09-20T05:42:19.590Z,11.60
2022-09-20T05:45:18.035Z,11.60
2022-09-20T05:48:03.353Z,11.60
2022-09-20T05:50:55.763Z,11.70
2022-09-20T05:54:00.615Z,11.70
2022-09-20T05:56:55.030Z,11.70
2022-09-20T05:59:49.623Z,11.70
2022-09-20T06:02:30.975Z,11.70
2022-09-20T06:05:29.387Z,11.70
2022-09-20T06:07:56.131Z,11.70
2022-09-20T06:11:17.400Z,11.80
2022-09-20T06:13:59.742Z,11.80
2022-09-20T06:16:38.167Z,11.80
2022-09-20T06:19:29.262Z,11.90
2022-09-20T06:22:01.927Z,12.00
2022-09-20T06:24:45.160Z,11.90
2022-09-20T06:27:22.019Z,11.90
2022-09-20T06:29:53.125Z,12.00
2022-09-20T06:32:19.898Z,12.00
2022-09-20T06:34:47.709Z,12.00
2022-09-20T06:37:33.128Z,12.00
2022-09-20T06:40:45.726Z,12.00
2022-09-20T06:43:14.633Z,12.00
2022-09-20T06:45:42.881Z,12.10
2022-09-20T06:48:11.661Z,12.00
2022-09-20T06:50:38.729Z,12.00
2022-09-20T06:53:06.546Z,12.00
2022-09-20T06:55:39.993Z,11.90
2022-09-20T06:58:06.793Z,11.90
2022-09-20T07:00:33.540Z,11.90
2022-09-20T07:03:00.329Z,11.90
2022-09-20T07:05:27.165Z,11.90
2022-09-20T07:07:58.467Z,11.90
2022-09-20T07:10:28.524Z,11.90
2022-09-20T07:13:02.654Z,12.00
2022-09-20T07:15:32.201Z,11.90
2022-09-20T07:18:00.286Z,12.00
2022-09-20T07:20:27.613Z,12.00
2022-09-20T07:22:54.557Z,12.00
2022-09-20T07:25:21.937Z,12.10
2022-09-20T07:27:50.889Z,12.10
2022-09-20T07:30:19.646Z,12.20
2022-09-20T07:32:46.658Z,12.30
2022-09-20T07:35:13.890Z,12.40
2022-09-20T07:37:41.437Z,12.50
2022-09-20T07:40:10.595Z,12.60
2022-09-20T07:42:37.706Z,12.70
2022-09-20T07:45:05.281Z,12.80
2022-09-20T07:47:35.435Z,12.80
2022-09-20T07:50:03.488Z,12.80
2022-09-20T07:52:30.270Z,12.80
2022-09-20T07:54:57.167Z,12.90
2022-09-20T07:57:24.043Z,13.00
2022-09-20T07:59:50.934Z,13.10
2022-09-20T08:02:17.928Z,13.10
2022-09-20T08:04:45.253Z,13.10
2022-09-20T08:07:12.732Z,13.20
2022-09-20T08:09:39.566Z,13.20
2022-09-20T08:14:55.546Z,13.20
2022-09-20T08:17:22.414Z,13.20
2022-09-20T08:19:49.999Z,13.30
2022-09-20T08:22:16.859Z,13.30
2022-09-20T08:24:44.484Z,13.40
2022-09-20T08:27:12.816Z,13.50
2022-09-20T08:29:40.573Z,13.40
2022-09-20T08:32:07.376Z,13.30
2022-09-20T08:34:34.160Z,13.40
2022-09-20T08:37:01.110Z,13.40
2022-09-20T08:42:17.950Z,13.60
2022-09-20T08:45:05.411Z,13.70
2022-09-20T08:47:36.707Z,13.80
2022-09-20T08:50:11.536Z,13.80
2022-09-20T08:52:40.189Z,13.70
2022-09-20T08:55:21.418Z,13.80
2022-09-20T08:57:53.916Z,13.90
2022-09-20T09:00:24.513Z,13.90
2022-09-20T09:02:55.435Z,13.90
2022-09-20T09:05:40.818Z,13.90
2022-09-20T09:08:17.181Z,13.90
2022-09-20T09:11:14.518Z,14.00
2022-09-20T09:13:55.686Z,14.10
2022-09-20T09:16:30.360Z,14.10
2022-09-20T09:19:44.373Z,14.20
2022-09-20T09:22:17.433Z,14.20
2022-09-20T09:24:44.513Z,14.30
2022-09-20T09:27:19.541Z,14.30
2022-09-20T09:29:56.355Z,14.40
2022-09-20T09:32:31.116Z,14.50
2022-09-20T09:35:23.687Z,14.60
2022-09-20T09:38:01.656Z,14.60
2022-09-20T09:40:31.613Z,14.60
2022-09-20T09:43:02.662Z,14.70
2022-09-20T09:45:39.572Z,14.70
2022-09-20T09:48:31.128Z,14.70
2022-09-20T09:51:13.129Z,14.60
2022-09-20T09:53:40.368Z,14.50
2022-09-20T09:56:17.214Z,14.40
2022-09-20T09:58:58.990Z,14.20
2022-09-20T10:01:50.752Z,13.90
2022-09-20T10:04:46.723Z,13.90
2022-09-20T10:07:43.494Z,13.90
2022-09-20T10:10:39.441Z,14.00
2022-09-20T10:13:12.205Z,14.10
2022-09-20T10:15:52.331Z,14.10
2022-09-20T10:18:31.567Z,14.10
2022-09-20T10:21:26.169Z,14.50
2022-09-20T10:24:04.278Z,14.90
2022-09-20T10:26:44.235Z,15.30
2022-09-20T10:29:16.995Z,15.10
2022-09-20T10:32:00.349Z,15.10
2022-09-20T10:34:53.654Z,15.30
2022-09-20T10:37:49.035Z,15.40
2022-09-20T10:40:16.402Z,15.50
2022-09-20T10:43:08.506Z,15.70
2022-09-20T10:48:51.588Z,15.80
2022-09-20T10:51:41.650Z,16.00
2022-09-20T10:54:42.073Z,16.50
2022-09-20T13:17:27.998Z,18.30
2022-09-20T13:19:56.382Z,18.60
2022-09-20T13:40:34.940Z,21.50
2022-09-20T14:08:48.643Z,18.30
2022-09-20T14:11:17.622Z,18.20
2022-09-20T14:13:50.237Z,17.60
2022-09-20T14:16:18.878Z,17.50
2022-09-20T14:18:48.052Z,17.40
2022-09-20T14:21:20.835Z,17.40
2022-09-20T14:23:51.657Z,17.50
2022-09-20T14:26:23.880Z,17.40
2022-09-20T14:28:50.779Z,17.20
2022-09-20T14:31:20.777Z,17.10
2022-09-20T14:33:55.061Z,16.80
2022-09-20T14:36:25.280Z,16.60
2022-09-20T14:38:58.841Z,16.70
2022-09-20T14:41:33.939Z,16.70
2022-09-20T14:44:02.763Z,16.70
2022-09-20T14:46:36.247Z,16.80
2022-09-20T14:49:30.578Z,16.80
2022-09-20T14:52:45.507Z,16.70
2022-09-20T14:55:16.244Z,16.80
2022-09-20T14:57:43.844Z,16.80
2022-09-20T15:00:14.383Z,16.70
2022-09-20T15:02:45.994Z,16.60
2022-09-20T15:05:26.250Z,16.50
2022-09-20T15:07:55.085Z,16.50
2022-09-20T15:10:22.421Z,16.70
2022-09-20T15:12:49.346Z,16.60
2022-09-20T15:15:19.006Z,16.60
2022-09-20T15:17:47.276Z,16.60
2022-09-20T15:20:24.600Z,16.50
2022-09-20T15:22:51.869Z,16.70
2022-09-20T15:25:21.315Z,16.60
2022-09-20T15:27:51.915Z,16.70
2022-09-20T15:30:22.483Z,16.60
2022-09-20T15:32:49.445Z,16.90
2022-09-20T15:35:16.480Z,17.00
2022-09-20T15:37:44.979Z,17.60
2022-09-20T15:40:12.038Z,17.60
2022-09-20T15:42:41.534Z,18.10
2022-09-20T15:45:11.009Z,18.20
2022-09-20T15:47:39.102Z,18.20
2022-09-20T15:50:08.593Z,18.20
2022-09-20T15:52:42.461Z,18.40
2022-09-20T15:55:09.927Z,18.30
2022-09-20T15:57:36.806Z,18.10
2022-09-20T16:00:04.275Z,18.10
2022-09-20T16:02:31.230Z,17.90
2022-09-20T16:04:59.557Z,17.60
2022-09-20T16:07:26.378Z,17.50
2022-09-20T16:09:56.647Z,17.30
2022-09-20T16:12:24.946Z,17.00
2022-09-20T16:14:51.816Z,16.80
2022-09-20T16:17:19.612Z,16.70
2022-09-20T16:19:47.610Z,16.60
2022-09-20T16:22:14.533Z,16.50
2022-09-20T16:24:41.449Z,16.40
2022-09-20T16:27:09.764Z,16.10
2022-09-20T16:29:36.699Z,15.90
2022-09-20T16:32:03.877Z,16.10
2022-09-20T16:34:34.743Z,16.10
2022-09-20T16:37:08.887Z,16.00
2022-09-20T16:39:35.816Z,16.00
2022-09-20T16:42:06.564Z,15.90
2022-09-20T16:44:38.499Z,15.90
2022-09-20T16:47:09.972Z,15.90
2022-09-20T16:49:37.937Z,15.70
2022-09-20T16:52:06.128Z,15.60
2022-09-20T16:54:33.807Z,15.70
2022-09-20T16:57:00.820Z,15.70
2022-09-20T16:59:27.635Z,15.70
2022-09-20T17:01:55.136Z,15.60
2022-09-20T17:04:22.089Z,15.50
2022-09-20T17:06:52.182Z,15.70
2022-09-20T17:09:19.265Z,15.50
2022-09-20T17:11:49.493Z,15.60
2022-09-20T17:14:18.895Z,15.60
2022-09-20T17:16:47.957Z,15.50
2022-09-20T17:19:19.950Z,15.30
2022-09-20T17:21:50.376Z,15.30
2022-09-20T17:24:22.107Z,15.40
2022-09-20T17:26:50.771Z,15.20
2022-09-20T17:29:19.301Z,15.20
2022-09-20T17:31:54.092Z,15.20
2022-09-20T17:34:22.610Z,15.20
2022-09-20T17:36:50.564Z,15.10
2022-09-20T17:39:18.011Z,15.00
2022-09-20T17:41:47.447Z,15.00
2022-09-20T17:44:15.442Z,15.00
2022-09-20T17:46:45.963Z,15.00
2022-09-20T17:49:15.607Z,14.80
2022-09-20T17:51:47.879Z,14.70
2022-09-20T17:54:18.449Z,14.80
2022-09-20T17:56:47.414Z,14.70
2022-09-20T17:59:16.206Z,14.60
2022-09-20T18:01:45.047Z,14.60
2022-09-20T18:04:12.712Z,14.50
2022-09-20T18:06:51.381Z,14.50
2022-09-20T18:09:20.600Z,14.50
2022-09-20T18:11:52.853Z,14.40
2022-09-20T18:14:23.951Z,14.50
2022-09-20T18:16:57.079Z,14.40
2022-09-20T18:19:24.343Z,14.30
2022-09-20T18:21:51.259Z,14.40
2022-09-20T18:24:18.152Z,14.30
